Dingxi, China
Current Conditions -  °F | °C
As of 12:00 PM on Saturday 25 Oct 2014 (Local Time) from ZLLL Reporting Station
Clear Clear  
Wind Chill: 59°   Ceiling: Unl
Heat Index: 59°   Visibility: 6mi
Dew Point: 34°   Wind: 4mph
Humidity: 39%   Direction: 150°SSE
Pressure: 30.15"   Gusts: NA
Location:  35.55°N, 104.53°E
Report Text: ZLLL 250400Z 15002MPS 090V190 CAVOK 15/01 Q1021 NOSIG
Loading
Personal Weather Stations






























Interactive Weather Map
Tropical Storm Tracking
New forecast layout! Learn more

10-Day Weather Forecast

Advertisements
Track Severe Weather on mobile